createdAt,value
2017-07-30T00:00:36.475Z,0
2017-07-30T00:01:46.388Z,0
2017-07-30T00:02:56.294Z,0
2017-07-30T00:04:06.521Z,0
2017-07-30T00:05:16.463Z,0
2017-07-30T00:06:26.683Z,0
2017-07-30T00:07:36.284Z,0
2017-07-30T00:08:45.937Z,0
2017-07-30T00:09:56.302Z,0
2017-07-30T00:11:05.910Z,0
2017-07-30T00:12:15.839Z,0
2017-07-30T00:13:25.755Z,0
2017-07-30T00:14:35.368Z,0
2017-07-30T00:15:45.732Z,0
2017-07-30T00:16:55.951Z,0
2017-07-30T00:18:06.172Z,0
2017-07-30T00:19:16.111Z,0
2017-07-30T00:20:26.026Z,0
2017-07-30T00:21:36.093Z,0
2017-07-30T00:22:46.308Z,0
2017-07-30T00:23:56.888Z,0
2017-07-30T00:25:06.822Z,0
2017-07-30T00:26:16.433Z,0
2017-07-30T00:27:26.698Z,0
2017-07-30T00:28:36.912Z,0
2017-07-30T00:29:46.516Z,0
2017-07-30T00:30:56.736Z,0
2017-07-30T00:32:06.643Z,0
2017-07-30T00:33:16.703Z,0
2017-07-30T00:34:26.006Z,0
2017-07-30T00:35:35.928Z,0
2017-07-30T00:36:45.221Z,0
2017-07-30T00:37:54.836Z,0
2017-07-30T00:39:04.764Z,0
2017-07-30T00:40:14.979Z,0
2017-07-30T00:41:25.192Z,0
2017-07-30T00:42:35.415Z,0
2017-07-30T00:43:45.635Z,0
2017-07-30T00:44:55.845Z,0
2017-07-30T00:46:05.762Z,0
2017-07-30T00:47:15.361Z,0
2017-07-30T00:48:25.602Z,0
2017-07-30T00:49:35.516Z,0
2017-07-30T00:50:45.417Z,0
2017-07-30T00:51:55.022Z,0
2017-07-30T00:53:04.945Z,0
2017-07-30T00:54:14.854Z,0
2017-07-30T00:55:24.764Z,0
2017-07-30T00:56:34.676Z,0
2017-07-30T00:57:44.585Z,0
2017-07-30T00:58:54.520Z,0
2017-07-30T01:00:04.129Z,0
2017-07-30T01:01:14.042Z,0
2017-07-30T01:02:24.311Z,0
2017-07-30T01:03:33.623Z,0
2017-07-30T01:04:43.232Z,0
2017-07-30T01:05:53.151Z,0
2017-07-30T01:07:02.746Z,0
2017-07-30T01:08:12.504Z,0
2017-07-30T01:09:22.117Z,0
2017-07-30T01:10:31.422Z,0
2017-07-30T01:11:41.646Z,0
2017-07-30T01:12:51.255Z,0
2017-07-30T01:14:01.318Z,0
2017-07-30T01:15:10.932Z,0
2017-07-30T01:16:20.850Z,0
2017-07-30T01:17:31.061Z,0
2017-07-30T01:18:41.288Z,0
2017-07-30T01:19:51.350Z,0
2017-07-30T01:21:01.567Z,0
2017-07-30T01:22:11.489Z,0
2017-07-30T01:23:21.088Z,0
2017-07-30T01:24:30.999Z,0
2017-07-30T01:25:40.966Z,0
2017-07-30T01:26:50.877Z,0
2017-07-30T01:28:00.479Z,0
2017-07-30T01:29:10.692Z,0
2017-07-30T01:30:20.311Z,0
2017-07-30T01:31:30.219Z,0
2017-07-30T01:32:40.142Z,0
2017-07-30T01:33:49.432Z,0
2017-07-30T01:34:58.417Z,0
2017-07-30T01:36:08.338Z,0
2017-07-30T01:37:18.553Z,0
2017-07-30T01:38:28.761Z,0
2017-07-30T01:39:38.704Z,0
2017-07-30T01:40:48.617Z,0
2017-07-30T01:41:58.220Z,0
2017-07-30T01:43:08.280Z,0
2017-07-30T01:44:18.190Z,0
2017-07-30T01:45:28.096Z,0
2017-07-30T01:46:37.694Z,0
2017-07-30T01:47:47.906Z,0
2017-07-30T01:48:57.837Z,0
2017-07-30T01:50:07.445Z,0
2017-07-30T01:51:17.657Z,0
2017-07-30T01:52:27.893Z,0
2017-07-30T01:53:37.818Z,0
2017-07-30T01:54:48.192Z,0
2017-07-30T01:55:57.493Z,0
2017-07-30T01:57:07.727Z,0
2017-07-30T01:58:17.635Z,0
2017-07-30T01:59:27.542Z,0
2017-07-30T02:00:37.595Z,0
2017-07-30T02:01:47.504Z,0
2017-07-30T02:02:57.418Z,0
2017-07-30T02:04:06.715Z,0
2017-07-30T02:05:16.627Z,0
2017-07-30T02:06:26.830Z,0
2017-07-30T02:07:37.047Z,0
2017-07-30T02:08:46.969Z,0
2017-07-30T02:09:56.872Z,0
2017-07-30T02:11:06.474Z,0
2017-07-30T02:12:16.803Z,0
2017-07-30T02:13:26.405Z,0
2017-07-30T02:14:36.618Z,0
2017-07-30T02:15:46.525Z,0
2017-07-30T02:16:55.822Z,0
2017-07-30T02:18:06.032Z,0
2017-07-30T02:19:15.952Z,0
2017-07-30T02:20:26.177Z,0
2017-07-30T02:21:36.093Z,0
2017-07-30T02:22:46.314Z,0
2017-07-30T02:23:55.978Z,0
2017-07-30T02:25:06.198Z,0
2017-07-30T02:26:16.426Z,0
2017-07-30T02:27:26.636Z,0
2017-07-30T02:28:36.542Z,0
2017-07-30T02:29:45.831Z,0
2017-07-30T02:30:55.451Z,0
2017-07-30T02:32:05.686Z,0
2017-07-30T02:33:15.898Z,0
2017-07-30T02:34:25.813Z,0
2017-07-30T02:35:35.820Z,0
2017-07-30T02:36:45.735Z,0
2017-07-30T02:37:55.639Z,0
2017-07-30T02:39:05.866Z,0
2017-07-30T02:40:15.771Z,0
2017-07-30T02:41:26.138Z,0
2017-07-30T02:42:36.365Z,0
2017-07-30T02:43:46.607Z,0
2017-07-30T02:44:56.230Z,0
2017-07-30T02:46:06.136Z,0
2017-07-30T02:47:15.440Z,0
2017-07-30T02:48:25.678Z,0
2017-07-30T02:49:34.982Z,0
2017-07-30T02:50:44.898Z,0
2017-07-30T02:51:54.826Z,0
2017-07-30T02:53:04.884Z,0
2017-07-30T02:54:14.493Z,0
2017-07-30T02:55:24.714Z,0
2017-07-30T02:56:34.940Z,0
2017-07-30T02:57:44.841Z,0
2017-07-30T02:58:55.229Z,0
2017-07-30T03:00:05.152Z,0
2017-07-30T03:01:15.056Z,0
2017-07-30T03:02:25.277Z,0
2017-07-30T03:03:35.490Z,0
2017-07-30T03:04:45.451Z,0
2017-07-30T03:05:55.371Z,0
2017-07-30T03:07:05.587Z,0
2017-07-30T03:08:15.810Z,0
2017-07-30T03:09:26.035Z,0
2017-07-30T03:10:36.405Z,0
2017-07-30T03:11:46.313Z,0
2017-07-30T03:12:56.222Z,0
2017-07-30T03:14:06.133Z,0
2017-07-30T03:15:15.734Z,0
2017-07-30T03:16:25.383Z,0
2017-07-30T03:17:35.286Z,0
2017-07-30T03:18:45.226Z,0
2017-07-30T03:19:55.433Z,0
2017-07-30T03:21:05.654Z,0
2017-07-30T03:22:15.881Z,0
2017-07-30T03:23:26.113Z,0
2017-07-30T03:24:36.334Z,0
2017-07-30T03:25:46.540Z,0
2017-07-30T03:26:56.140Z,0
2017-07-30T03:28:06.204Z,0
2017-07-30T03:29:16.430Z,0
2017-07-30T03:30:26.042Z,0
2017-07-30T03:31:35.643Z,0
2017-07-30T03:32:45.556Z,4
2017-07-30T03:33:54.855Z,4
2017-07-30T03:35:04.783Z,4
2017-07-30T03:36:14.994Z,4
2017-07-30T03:37:24.591Z,4
2017-07-30T03:38:34.506Z,4
2017-07-30T03:39:44.876Z,8
2017-07-30T03:40:54.798Z,4
2017-07-30T03:42:04.717Z,8
2017-07-30T03:43:14.348Z,8
2017-07-30T03:44:24.581Z,8
2017-07-30T03:45:34.912Z,12
2017-07-30T03:46:44.821Z,8
2017-07-30T03:47:54.733Z,12
2017-07-30T03:49:04.651Z,16
2017-07-30T03:50:14.565Z,12
2017-07-30T03:51:24.801Z,16
2017-07-30T03:52:34.487Z,16
2017-07-30T03:53:44.703Z,20
2017-07-30T03:54:54.613Z,20
2017-07-30T03:56:04.206Z,24
2017-07-30T03:57:13.658Z,24
2017-07-30T03:58:23.881Z,32
2017-07-30T03:59:34.112Z,32
2017-07-30T04:00:43.716Z,36
2017-07-30T04:01:53.632Z,40
2017-07-30T04:03:03.649Z,44
2017-07-30T04:04:13.258Z,44
2017-07-30T04:05:23.192Z,48
2017-07-30T04:06:32.802Z,48
2017-07-30T04:07:42.415Z,48
2017-07-30T04:08:52.656Z,48
2017-07-30T04:10:02.559Z,56
2017-07-30T04:11:12.464Z,56
2017-07-30T04:12:22.387Z,64
2017-07-30T04:13:32.622Z,68
2017-07-30T04:14:42.839Z,76
2017-07-30T04:15:52.758Z,80
2017-07-30T04:17:02.378Z,84
2017-07-30T04:18:11.982Z,88
2017-07-30T04:19:21.909Z,96
2017-07-30T04:20:32.231Z,100
2017-07-30T04:21:42.454Z,104
2017-07-30T04:22:52.395Z,104
2017-07-30T04:24:02.310Z,108
2017-07-30T04:25:12.218Z,108
2017-07-30T04:26:22.239Z,108
2017-07-30T04:27:32.158Z,112
2017-07-30T04:28:41.777Z,112
2017-07-30T04:29:51.091Z,116
2017-07-30T04:31:01.311Z,116
2017-07-30T04:32:11.390Z,120
2017-07-30T04:33:21.302Z,120
2017-07-30T04:34:30.922Z,124
2017-07-30T04:35:40.833Z,128
2017-07-30T04:36:50.751Z,132
2017-07-30T04:38:01.123Z,132
2017-07-30T04:39:10.731Z,136
2017-07-30T04:40:20.345Z,144
2017-07-30T04:41:30.585Z,156
2017-07-30T04:42:40.830Z,168
2017-07-30T04:43:50.592Z,176
2017-07-30T04:45:00.529Z,180
2017-07-30T04:46:10.140Z,192
2017-07-30T04:47:20.351Z,204
2017-07-30T04:48:29.964Z,232
2017-07-30T04:49:39.721Z,268
2017-07-30T04:50:50.308Z,308
2017-07-30T04:52:00.523Z,344
2017-07-30T04:53:10.438Z,384
2017-07-30T04:54:20.663Z,388
2017-07-30T04:55:30.424Z,384
2017-07-30T04:56:40.645Z,388
2017-07-30T04:57:50.586Z,392
2017-07-30T04:59:00.507Z,408
2017-07-30T05:00:10.429Z,432
2017-07-30T05:01:20.359Z,456
2017-07-30T05:02:30.590Z,484
2017-07-30T05:03:40.512Z,524
2017-07-30T05:04:50.433Z,584
2017-07-30T05:06:00.341Z,660
2017-07-30T05:07:10.106Z,684
2017-07-30T05:08:19.709Z,744
2017-07-30T05:09:29.617Z,780
2017-07-30T05:10:39.217Z,820
2017-07-30T05:11:49.122Z,884
2017-07-30T05:12:58.284Z,968
2017-07-30T05:14:08.195Z,1144
2017-07-30T05:15:18.403Z,1336
2017-07-30T05:16:28.025Z,1296
2017-07-30T05:17:38.262Z,1340
2017-07-30T05:18:48.228Z,1380
2017-07-30T05:19:58.453Z,1492
2017-07-30T05:21:08.681Z,1564
2017-07-30T05:22:18.295Z,1564
2017-07-30T05:23:28.207Z,1548
2017-07-30T05:24:38.232Z,1584
2017-07-30T05:25:48.182Z,1572
2017-07-30T05:26:58.090Z,1668
2017-07-30T05:28:08.322Z,1708
2017-07-30T05:29:18.570Z,1720
2017-07-30T05:30:28.654Z,1720
2017-07-30T05:31:38.254Z,1784
2017-07-30T05:32:48.181Z,1772
2017-07-30T05:33:57.507Z,1748
2017-07-30T05:35:06.813Z,1764
2017-07-30T05:36:17.075Z,1708
2017-07-30T05:37:26.995Z,1780
2017-07-30T05:38:36.930Z,1792
2017-07-30T05:39:46.854Z,1840
2017-07-30T05:40:56.768Z,1856
2017-07-30T05:42:07.037Z,1892
2017-07-30T05:43:16.664Z,1884
2017-07-30T05:44:26.596Z,1880
2017-07-30T05:45:36.833Z,1916
2017-07-30T05:46:46.452Z,1944
2017-07-30T05:47:56.537Z,2012
2017-07-30T05:49:06.471Z,2036
2017-07-30T05:50:15.780Z,2076
2017-07-30T05:51:26.001Z,2128
2017-07-30T05:52:36.221Z,2184
2017-07-30T05:53:45.822Z,2252
2017-07-30T05:54:55.446Z,2292
2017-07-30T05:56:05.375Z,2288
2017-07-30T05:57:15.609Z,2296
2017-07-30T05:58:25.551Z,2352
2017-07-30T05:59:35.767Z,2648
2017-07-30T06:00:47.317Z,2468
2017-07-30T06:01:56.930Z,2388
2017-07-30T06:03:06.859Z,2428
2017-07-30T06:04:16.602Z,2484
2017-07-30T06:05:27.292Z,2632
2017-07-30T06:06:37.576Z,2736
2017-07-30T06:07:47.806Z,2788
2017-07-30T06:08:58.035Z,2812
2017-07-30T06:10:07.660Z,2832
2017-07-30T06:11:17.731Z,2784
2017-07-30T06:12:27.640Z,2752
2017-07-30T06:13:37.559Z,2716
2017-07-30T06:14:47.495Z,2736
2017-07-30T06:15:57.415Z,2784
2017-07-30T06:17:07.521Z,2804
2017-07-30T06:18:17.752Z,2664
2017-07-30T06:19:27.386Z,2912
2017-07-30T06:20:37.625Z,2732
2017-07-30T06:21:47.578Z,2748
2017-07-30T06:22:57.940Z,3280
2017-07-30T06:24:07.907Z,3748
2017-07-30T06:25:18.184Z,5824
2017-07-30T06:26:28.132Z,13844
2017-07-30T06:27:38.084Z,22112
2017-07-30T06:28:48.069Z,23584
2017-07-30T06:29:57.990Z,12944
2017-07-30T06:31:08.216Z,3108
2017-07-30T06:32:18.142Z,2464
2017-07-30T06:33:28.047Z,2252
2017-07-30T06:34:37.711Z,1888
2017-07-30T06:35:47.930Z,1692
2017-07-30T06:36:57.541Z,1356
2017-07-30T06:38:06.843Z,1204
2017-07-30T06:39:16.461Z,1140
2017-07-30T06:40:26.227Z,1204
2017-07-30T06:41:35.526Z,1096
2017-07-30T06:42:45.129Z,1052
2017-07-30T06:43:54.490Z,1064
2017-07-30T06:45:04.114Z,1172
2017-07-30T06:46:13.255Z,1296
2017-07-30T06:47:22.866Z,1376
2017-07-30T06:48:33.294Z,1692
2017-07-30T06:49:42.895Z,1440
2017-07-30T06:50:52.819Z,1048
2017-07-30T06:52:02.926Z,1040
2017-07-30T06:53:12.845Z,1040
2017-07-30T06:54:23.068Z,1160
2017-07-30T06:55:33.282Z,1072
2017-07-30T06:56:43.196Z,1280
2017-07-30T06:57:53.155Z,1440
2017-07-30T06:59:02.787Z,1192
2017-07-30T07:00:11.778Z,1152
2017-07-30T07:01:21.693Z,1164
2017-07-30T07:02:31.908Z,1208
2017-07-30T07:03:41.946Z,1372
2017-07-30T07:04:51.850Z,1636
2017-07-30T07:06:02.071Z,1948
2017-07-30T07:07:12.004Z,2248
2017-07-30T07:08:21.920Z,2340
2017-07-30T07:09:32.435Z,2620
2017-07-30T07:10:42.344Z,3832
2017-07-30T07:11:51.958Z,7164
2017-07-30T07:13:01.570Z,2828
2017-07-30T07:14:11.794Z,10068
2017-07-30T07:15:21.708Z,11736
2017-07-30T07:16:31.637Z,12808
2017-07-30T07:17:41.246Z,12668
2017-07-30T07:18:51.472Z,18240
2017-07-30T07:20:00.779Z,29856
2017-07-30T07:21:11.305Z,27712
2017-07-30T07:22:21.535Z,17796
2017-07-30T07:23:31.451Z,27520
2017-07-30T07:24:41.075Z,25536
2017-07-30T07:25:51.296Z,9344
2017-07-30T07:27:00.945Z,8176
2017-07-30T07:28:10.865Z,4844
2017-07-30T07:29:20.173Z,4716
2017-07-30T07:30:30.403Z,11692
2017-07-30T07:31:40.621Z,9288
2017-07-30T07:32:50.572Z,4488
2017-07-30T07:34:00.482Z,24320
2017-07-30T07:35:10.724Z,22976
2017-07-30T07:36:20.644Z,24800
2017-07-30T07:37:30.261Z,15492
2017-07-30T07:38:40.327Z,31456
2017-07-30T07:39:50.552Z,8368
2017-07-30T07:41:00.773Z,3844
2017-07-30T07:42:10.995Z,18752
2017-07-30T07:43:21.222Z,1792
2017-07-30T07:44:31.146Z,1864
2017-07-30T07:45:41.362Z,6104
2017-07-30T07:46:51.577Z,28864
2017-07-30T07:48:01.195Z,13016
2017-07-30T07:49:11.115Z,8884
2017-07-30T07:50:21.360Z,16708
2017-07-30T07:51:30.969Z,8564
2017-07-30T07:52:40.269Z,17980
2017-07-30T07:53:50.505Z,46912
2017-07-30T07:55:00.414Z,45984
2017-07-30T07:56:09.710Z,39552
2017-07-30T07:57:19.613Z,51872
2017-07-30T07:58:29.841Z,11964
2017-07-30T07:59:39.137Z,52032
2017-07-30T08:00:49.047Z,26720
2017-07-30T08:01:59.427Z,39040
2017-07-30T08:03:09.654Z,33440
2017-07-30T08:04:19.271Z,17296
2017-07-30T08:05:29.506Z,52064
2017-07-30T08:06:39.443Z,55584
2017-07-30T08:07:49.491Z,51616
2017-07-30T08:08:59.096Z,45952
2017-07-30T08:10:09.020Z,47392
2017-07-30T08:11:18.947Z,50912
2017-07-30T08:12:28.859Z,53280
2017-07-30T08:13:38.568Z,44576
2017-07-30T08:14:48.792Z,46880
2017-07-30T08:15:59.035Z,55264
2017-07-30T08:17:08.652Z,50272
2017-07-30T08:18:18.881Z,38560
2017-07-30T08:19:29.115Z,55232
2017-07-30T08:20:38.718Z,52256
2017-07-30T08:21:48.326Z,54656
2017-07-30T08:22:58.244Z,11308
2017-07-30T08:24:07.540Z,54752
2017-07-30T08:25:17.451Z,1636
2017-07-30T08:26:26.779Z,58272
2017-07-30T08:27:37.034Z,2980
2017-07-30T08:28:46.952Z,60544
2017-07-30T08:29:56.870Z,54880
2017-07-30T08:31:06.784Z,54816
2017-07-30T08:32:16.077Z,1764
2017-07-30T08:33:25.675Z,29600
2017-07-30T08:34:35.906Z,29472
2017-07-30T08:35:45.522Z,58400
2017-07-30T08:36:55.752Z,61664
2017-07-30T08:38:05.973Z,61280
2017-07-30T08:39:15.591Z,53376
2017-07-30T08:40:26.053Z,55200
2017-07-30T08:41:35.997Z,50464
2017-07-30T08:42:46.290Z,32960
2017-07-30T08:43:56.210Z,26368
2017-07-30T08:45:05.815Z,36320
2017-07-30T08:46:15.750Z,46272
2017-07-30T08:47:25.971Z,51104
2017-07-30T08:48:35.946Z,56448
2017-07-30T08:49:45.937Z,52320
2017-07-30T08:50:56.187Z,32416
2017-07-30T08:52:06.407Z,50240
2017-07-30T08:53:16.633Z,50304
2017-07-30T08:54:26.644Z,54464
2017-07-30T08:55:36.558Z,4060
2017-07-30T08:56:46.160Z,6080
2017-07-30T08:57:55.774Z,4872
2017-07-30T08:59:05.704Z,15516
2017-07-30T09:00:15.179Z,1728
2017-07-30T09:01:25.112Z,2304
2017-07-30T09:02:35.039Z,4172
2017-07-30T09:03:44.968Z,1596
2017-07-30T09:04:54.895Z,1004
2017-07-30T09:06:04.963Z,1040
2017-07-30T09:07:14.266Z,3004
2017-07-30T09:08:24.492Z,3520
2017-07-30T09:09:34.108Z,2968
2017-07-30T09:10:43.421Z,2564
2017-07-30T09:11:53.457Z,3328
2017-07-30T09:13:03.083Z,2820
2017-07-30T09:14:13.302Z,2616
2017-07-30T09:15:22.932Z,2476
2017-07-30T09:16:33.152Z,2808
2017-07-30T09:17:43.369Z,2440
2017-07-30T09:18:53.604Z,2276
2017-07-30T09:20:03.544Z,2160
2017-07-30T09:21:13.471Z,2216
2017-07-30T09:22:23.380Z,2296
2017-07-30T09:23:33.614Z,2304
2017-07-30T09:24:42.921Z,2440
2017-07-30T09:25:53.145Z,2372
2017-07-30T09:27:02.759Z,2424
2017-07-30T09:28:12.683Z,2048
2017-07-30T09:29:23.056Z,2024
2017-07-30T09:30:32.972Z,1900
2017-07-30T09:31:42.577Z,2192
2017-07-30T09:32:52.515Z,2416
2017-07-30T09:34:02.752Z,2472
2017-07-30T09:35:13.130Z,2508
2017-07-30T09:36:23.359Z,2916
2017-07-30T09:37:33.592Z,2676
2017-07-30T09:38:42.915Z,2612
2017-07-30T09:39:52.518Z,2608
2017-07-30T09:41:01.915Z,1880
2017-07-30T09:42:11.521Z,2996
2017-07-30T09:43:21.439Z,2456
2017-07-30T09:44:31.368Z,2112
2017-07-30T09:45:40.982Z,2176
2017-07-30T09:46:50.597Z,2852
2017-07-30T09:48:00.842Z,2712
2017-07-30T09:49:11.063Z,2792
2017-07-30T09:50:20.981Z,2608
2017-07-30T09:51:30.588Z,2500
2017-07-30T09:52:40.516Z,2352
2017-07-30T09:53:50.121Z,2172
2017-07-30T09:55:00.362Z,2432
2017-07-30T09:56:10.577Z,2528
2017-07-30T09:57:20.198Z,3312
2017-07-30T09:58:30.499Z,2780
2017-07-30T09:59:40.736Z,2804
2017-07-30T10:00:50.656Z,2544
2017-07-30T10:02:00.900Z,2508
2017-07-30T10:03:10.524Z,2780
2017-07-30T10:04:20.785Z,1968
2017-07-30T10:05:31.018Z,1088
2017-07-30T10:06:40.622Z,2064
2017-07-30T10:07:50.837Z,2896
2017-07-30T10:09:00.754Z,2984
2017-07-30T10:10:10.976Z,3004
2017-07-30T10:11:20.892Z,3036
2017-07-30T10:12:30.525Z,3052
2017-07-30T10:13:40.743Z,3016
2017-07-30T10:14:50.653Z,3100
2017-07-30T10:16:00.874Z,3148
2017-07-30T10:17:11.481Z,2816
2017-07-30T10:18:21.393Z,2184
2017-07-30T10:19:30.994Z,2276
2017-07-30T10:20:40.941Z,2432
2017-07-30T10:21:50.862Z,2496
2017-07-30T10:23:01.095Z,2232
2017-07-30T10:24:10.394Z,2304
2017-07-30T10:25:20.617Z,2260
2017-07-30T10:26:30.868Z,2260
2017-07-30T10:27:40.939Z,2504
2017-07-30T10:28:50.844Z,2644
2017-07-30T10:30:00.467Z,2640
2017-07-30T10:31:10.384Z,2628
2017-07-30T10:32:20.296Z,2576
2017-07-30T10:33:30.810Z,2492
2017-07-30T10:34:40.729Z,2368
2017-07-30T10:35:50.344Z,2032
2017-07-30T10:37:00.273Z,2304
2017-07-30T10:38:09.570Z,2396
2017-07-30T10:39:19.378Z,2428
2017-07-30T10:40:29.601Z,2508
2017-07-30T10:41:39.820Z,2572
2017-07-30T10:42:49.129Z,2468
2017-07-30T10:43:58.733Z,2372
2017-07-30T10:45:08.798Z,2192
2017-07-30T10:46:18.717Z,2084
2017-07-30T10:47:28.343Z,2032
2017-07-30T10:48:38.255Z,2080
2017-07-30T10:49:48.475Z,2160
2017-07-30T10:50:58.540Z,2172
2017-07-30T10:52:08.785Z,2232
2017-07-30T10:53:19.006Z,2200
2017-07-30T10:54:29.233Z,2088
2017-07-30T10:55:38.852Z,2044
2017-07-30T10:56:49.239Z,2000
2017-07-30T10:57:58.235Z,2000
2017-07-30T10:59:08.148Z,1852
2017-07-30T11:00:18.070Z,1664
2017-07-30T11:01:27.988Z,1580
2017-07-30T11:02:37.912Z,1424
2017-07-30T11:03:47.827Z,1340
2017-07-30T11:04:57.752Z,1304
2017-07-30T11:06:07.662Z,1292
2017-07-30T11:07:17.891Z,1284
2017-07-30T11:08:28.219Z,1228
2017-07-30T11:09:37.837Z,1204
2017-07-30T11:10:47.440Z,1160
2017-07-30T11:11:57.044Z,1112
2017-07-30T11:13:06.954Z,1060
2017-07-30T11:14:17.016Z,1008
2017-07-30T11:15:26.651Z,964
2017-07-30T11:16:36.580Z,956
2017-07-30T11:17:46.495Z,944
2017-07-30T11:18:56.409Z,952
2017-07-30T11:20:06.727Z,952
2017-07-30T11:21:16.023Z,1008
2017-07-30T11:22:25.326Z,1120
2017-07-30T11:23:35.243Z,1064
2017-07-30T11:24:44.857Z,1080
2017-07-30T11:25:54.826Z,1244
2017-07-30T11:27:04.740Z,1316
2017-07-30T11:28:14.655Z,1204
2017-07-30T11:29:24.586Z,1236
2017-07-30T11:30:34.496Z,1252
2017-07-30T11:31:43.898Z,1080
2017-07-30T11:32:54.117Z,1064
2017-07-30T11:34:04.333Z,1320
2017-07-30T11:35:14.251Z,1180
2017-07-30T11:36:24.190Z,1196
2017-07-30T11:37:34.403Z,1440
2017-07-30T11:38:44.623Z,1292
2017-07-30T11:39:54.540Z,1236
2017-07-30T11:41:04.460Z,972
2017-07-30T11:42:14.073Z,1104
2017-07-30T11:43:24.141Z,1188
2017-07-30T11:44:34.363Z,992
2017-07-30T11:45:43.988Z,1008
2017-07-30T11:46:53.598Z,1096
2017-07-30T11:48:03.816Z,1224
2017-07-30T11:49:14.037Z,1572
2017-07-30T11:50:23.962Z,1684
2017-07-30T11:51:33.571Z,1608
2017-07-30T11:52:43.490Z,1532
2017-07-30T11:53:53.408Z,1560
2017-07-30T11:55:03.653Z,1428
2017-07-30T11:56:13.594Z,1404
2017-07-30T11:57:23.827Z,1448
2017-07-30T11:58:33.446Z,1492
2017-07-30T11:59:43.062Z,1704
2017-07-30T12:00:53.132Z,1792
2017-07-30T12:02:02.748Z,1868
2017-07-30T12:03:12.987Z,1996
2017-07-30T12:04:22.604Z,1984
2017-07-30T12:05:33.196Z,1884
2017-07-30T12:06:43.588Z,1800
2017-07-30T12:07:53.505Z,1864
2017-07-30T12:09:03.738Z,1864
2017-07-30T12:10:13.949Z,1808
2017-07-30T12:11:23.850Z,1828
2017-07-30T12:12:33.908Z,1880
2017-07-30T12:13:43.822Z,1860
2017-07-30T12:14:53.746Z,1740
2017-07-30T12:16:03.981Z,1584
2017-07-30T12:17:13.896Z,1616
2017-07-30T12:18:23.966Z,1692
2017-07-30T12:19:33.895Z,1804
2017-07-30T12:20:44.142Z,1912
2017-07-30T12:21:54.090Z,1872
2017-07-30T12:23:04.361Z,1768
2017-07-30T12:24:14.334Z,1748
2017-07-30T12:25:23.649Z,1676
2017-07-30T12:26:33.567Z,1596
2017-07-30T12:27:43.837Z,1624
2017-07-30T12:28:53.769Z,1664
2017-07-30T12:30:03.985Z,1684
2017-07-30T12:31:13.611Z,1708
2017-07-30T12:32:23.530Z,1764
2017-07-30T12:33:33.446Z,1772
2017-07-30T12:34:43.379Z,1720
2017-07-30T12:35:53.137Z,1720
2017-07-30T12:37:03.061Z,1684
2017-07-30T12:38:12.992Z,1644
2017-07-30T12:39:21.996Z,1616
2017-07-30T12:40:32.226Z,1644
2017-07-30T12:41:42.754Z,1624
2017-07-30T12:42:52.371Z,1632
2017-07-30T12:44:02.295Z,1672
2017-07-30T12:45:12.204Z,1692
2017-07-30T12:46:22.125Z,1736
2017-07-30T12:47:32.421Z,1780
2017-07-30T12:48:41.729Z,1840
2017-07-30T12:49:51.639Z,1888
2017-07-30T12:51:01.579Z,1880
2017-07-30T12:52:11.504Z,1984
2017-07-30T12:53:21.128Z,1980
2017-07-30T12:54:30.769Z,1948
2017-07-30T12:55:40.382Z,1904
2017-07-30T12:56:50.003Z,1916
2017-07-30T12:57:59.939Z,1828
2017-07-30T12:59:09.906Z,1764
2017-07-30T13:00:20.135Z,1784
2017-07-30T13:01:29.790Z,1856
2017-07-30T13:02:40.055Z,1828
2017-07-30T13:03:49.968Z,1712
2017-07-30T13:04:59.422Z,1720
2017-07-30T13:06:09.059Z,1736
2017-07-30T13:07:18.975Z,1744
2017-07-30T13:08:28.894Z,1692
2017-07-30T13:09:38.510Z,1672
2017-07-30T13:10:48.568Z,1616
2017-07-30T13:11:58.497Z,1388
2017-07-30T13:13:08.119Z,1404
2017-07-30T13:14:18.344Z,1328
2017-07-30T13:15:28.266Z,1300
2017-07-30T13:16:38.591Z,1292
2017-07-30T13:17:48.264Z,1228
2017-07-30T13:18:58.183Z,1292
2017-07-30T13:20:08.415Z,1296
2017-07-30T13:21:18.021Z,1176
2017-07-30T13:22:27.478Z,1060
2017-07-30T13:23:38.660Z,1216
2017-07-30T13:24:48.293Z,1268
2017-07-30T13:25:58.212Z,1224
2017-07-30T13:27:07.514Z,1116
2017-07-30T13:28:16.916Z,1144
2017-07-30T13:29:26.244Z,1244
2017-07-30T13:30:35.859Z,1244
2017-07-30T13:31:46.086Z,1112
2017-07-30T13:32:56.311Z,924
2017-07-30T13:34:06.230Z,832
2017-07-30T13:35:16.145Z,696
2017-07-30T13:36:25.483Z,752
2017-07-30T13:37:35.414Z,732
2017-07-30T13:38:45.643Z,792
2017-07-30T13:39:56.032Z,804
2017-07-30T13:41:06.015Z,716
2017-07-30T13:42:15.965Z,808
2017-07-30T13:43:26.185Z,868
2017-07-30T13:44:35.860Z,836
2017-07-30T13:45:45.530Z,820
2017-07-30T13:46:55.781Z,948
2017-07-30T13:48:06.014Z,908
2017-07-30T13:49:15.631Z,828
2017-07-30T13:50:24.936Z,852
2017-07-30T13:51:34.962Z,840
2017-07-30T13:52:44.576Z,804
2017-07-30T13:53:54.828Z,736
2017-07-30T13:55:04.734Z,692
2017-07-30T13:56:14.719Z,628
2017-07-30T13:57:25.322Z,660
2017-07-30T13:58:35.578Z,644
2017-07-30T13:59:45.830Z,624
2017-07-30T14:00:55.773Z,628
2017-07-30T14:02:05.386Z,600
2017-07-30T14:03:15.597Z,576
2017-07-30T14:04:25.521Z,616
2017-07-30T14:05:35.130Z,656
2017-07-30T14:06:44.746Z,632
2017-07-30T14:07:54.967Z,664
2017-07-30T14:09:05.253Z,560
2017-07-30T14:10:15.174Z,616
2017-07-30T14:11:25.091Z,556
2017-07-30T14:12:35.020Z,564
2017-07-30T14:13:44.997Z,584
2017-07-30T14:14:55.368Z,588
2017-07-30T14:16:05.599Z,392
2017-07-30T14:17:16.715Z,408
2017-07-30T14:18:27.285Z,580
2017-07-30T14:19:36.669Z,660
2017-07-30T14:20:47.461Z,712
2017-07-30T14:21:57.699Z,848
2017-07-30T14:23:07.612Z,820
2017-07-30T14:24:17.569Z,708
2017-07-30T14:25:27.493Z,560
2017-07-30T14:26:38.382Z,600
2017-07-30T14:27:48.071Z,384
2017-07-30T14:28:58.299Z,596
2017-07-30T14:30:07.609Z,600
2017-07-30T14:31:17.535Z,624
2017-07-30T14:32:27.456Z,560
2017-07-30T14:33:37.373Z,492
2017-07-30T14:34:47.302Z,612
2017-07-30T14:35:57.550Z,872
2017-07-30T14:37:07.487Z,1188
2017-07-30T14:38:17.202Z,1256
2017-07-30T14:39:27.430Z,1196
2017-07-30T14:40:37.061Z,1184
2017-07-30T14:41:46.387Z,1208
2017-07-30T14:42:56.086Z,1164
2017-07-30T14:44:06.447Z,1196
2017-07-30T14:45:16.711Z,1044
2017-07-30T14:46:26.648Z,1108
2017-07-30T14:47:36.265Z,708
2017-07-30T14:48:46.196Z,788
2017-07-30T14:49:56.577Z,1088
2017-07-30T14:51:06.190Z,1044
2017-07-30T14:52:16.111Z,984
2017-07-30T14:53:25.418Z,888
2017-07-30T14:54:35.338Z,852
2017-07-30T14:55:45.815Z,780
2017-07-30T14:56:55.739Z,664
2017-07-30T14:58:05.375Z,688
2017-07-30T14:59:15.609Z,684
2017-07-30T15:00:25.850Z,732
2017-07-30T15:01:35.800Z,544
2017-07-30T15:02:45.726Z,436
2017-07-30T15:03:55.053Z,384
2017-07-30T15:05:04.372Z,496
2017-07-30T15:06:14.297Z,636
2017-07-30T15:07:24.873Z,476
2017-07-30T15:08:34.795Z,544
2017-07-30T15:09:44.728Z,460
2017-07-30T15:10:54.365Z,536
2017-07-30T15:12:03.423Z,736
2017-07-30T15:13:13.468Z,656
2017-07-30T15:14:23.090Z,660
2017-07-30T15:15:33.336Z,764
2017-07-30T15:16:43.577Z,828
2017-07-30T15:17:53.208Z,936
2017-07-30T15:19:02.685Z,660
2017-07-30T15:20:12.620Z,556
2017-07-30T15:21:22.867Z,480
2017-07-30T15:22:33.035Z,540
2017-07-30T15:23:42.973Z,904
2017-07-30T15:24:52.919Z,840
2017-07-30T15:26:03.151Z,896
2017-07-30T15:27:13.063Z,752
2017-07-30T15:28:22.996Z,724
2017-07-30T15:29:33.233Z,684
2017-07-30T15:30:42.583Z,640
2017-07-30T15:31:51.921Z,728
2017-07-30T15:33:01.556Z,696
2017-07-30T15:34:11.224Z,704
2017-07-30T15:35:21.487Z,776
2017-07-30T15:36:31.871Z,772
2017-07-30T15:37:41.851Z,704
2017-07-30T15:38:51.796Z,860
2017-07-30T15:40:01.710Z,748
2017-07-30T15:41:11.710Z,704
2017-07-30T15:42:21.474Z,688
2017-07-30T15:43:31.099Z,836
2017-07-30T15:44:40.763Z,964
2017-07-30T15:45:50.680Z,988
2017-07-30T15:47:00.589Z,984
2017-07-30T15:48:10.814Z,1032
2017-07-30T15:49:20.736Z,904
2017-07-30T15:50:30.967Z,716
2017-07-30T15:51:40.883Z,692
2017-07-30T15:52:50.804Z,684
2017-07-30T15:54:00.117Z,664
2017-07-30T15:55:10.341Z,628
2017-07-30T15:56:19.942Z,688
2017-07-30T15:57:29.863Z,1120
2017-07-30T15:58:39.785Z,1120